createdAt,value
2022-09-26T00:00:22.194Z,17.43
2022-09-26T00:03:24.930Z,17.73
2022-09-26T00:06:28.143Z,17.84
2022-09-26T00:09:30.821Z,17.80
2022-09-26T00:12:33.514Z,18.10
2022-09-26T00:15:37.493Z,18.07
2022-09-26T00:18:40.374Z,18.14
2022-09-26T00:21:43.091Z,18.18
2022-09-26T00:24:45.760Z,18.15
2022-09-26T00:27:48.469Z,18.06
2022-09-26T00:30:52.509Z,18.16
2022-09-26T00:33:55.310Z,18.12
2022-09-26T00:36:58.351Z,18.17
2022-09-26T00:40:01.059Z,18.13
2022-09-26T00:43:03.710Z,18.15
2022-09-26T00:46:13.138Z,18.30
2022-09-26T00:49:19.070Z,18.20
2022-09-26T00:52:25.100Z,18.10
2022-09-26T00:55:29.180Z,18.23
2022-09-26T00:58:33.232Z,18.10
2022-09-26T01:01:38.205Z,18.20
2022-09-26T01:04:42.610Z,18.05
2022-09-26T01:07:45.554Z,18.04
2022-09-26T01:10:50.163Z,18.06
2022-09-26T01:13:53.622Z,18.00
2022-09-26T01:16:57.735Z,17.95
2022-09-26T01:20:08.956Z,18.17
2022-09-26T01:23:33.906Z,18.08
2022-09-26T01:26:54.368Z,17.93
2022-09-26T01:30:04.823Z,18.05
2022-09-26T01:33:16.455Z,17.99
2022-09-26T01:36:33.985Z,17.84
2022-09-26T01:39:42.836Z,17.88
2022-09-26T01:42:51.126Z,17.98
2022-09-26T01:46:00.205Z,17.92
2022-09-26T01:49:09.843Z,17.95
2022-09-26T01:52:17.363Z,17.89
2022-09-26T01:55:22.720Z,17.88
2022-09-26T01:58:28.991Z,18.00
2022-09-26T02:01:36.209Z,18.08
2022-09-26T02:04:41.805Z,17.77
2022-09-26T02:07:48.419Z,17.91
2022-09-26T02:10:52.773Z,18.05
2022-09-26T02:13:57.502Z,18.11
2022-09-26T02:17:03.334Z,18.05
2022-09-26T02:20:07.607Z,17.92
2022-09-26T02:23:10.339Z,17.79
2022-09-26T02:26:12.989Z,17.88
2022-09-26T02:29:16.251Z,17.95
2022-09-26T02:32:22.161Z,18.07
2022-09-26T02:35:42.649Z,17.82
2022-09-26T02:38:45.435Z,17.98
2022-09-26T02:41:49.835Z,17.86
2022-09-26T02:45:06.867Z,18.02
2022-09-26T02:48:24.811Z,18.04
2022-09-26T02:51:35.793Z,17.87
2022-09-26T02:54:44.160Z,18.01
2022-09-26T02:57:50.266Z,17.79
2022-09-26T03:00:56.491Z,17.85
2022-09-26T03:04:03.535Z,18.00
2022-09-26T03:07:09.161Z,17.84
2022-09-26T03:10:12.914Z,17.79
2022-09-26T03:13:17.048Z,17.92
2022-09-26T03:16:21.177Z,18.02
2022-09-26T03:19:30.257Z,18.07
2022-09-26T03:22:33.508Z,17.97
2022-09-26T03:25:36.403Z,18.13
2022-09-26T03:28:39.473Z,17.98
2022-09-26T03:31:42.153Z,18.02
2022-09-26T03:34:46.329Z,18.03
2022-09-26T03:37:49.071Z,17.86
2022-09-26T03:40:52.742Z,17.98
2022-09-26T03:43:57.595Z,18.06
2022-09-26T03:47:00.269Z,17.97
2022-09-26T03:50:05.108Z,17.85
2022-09-26T03:53:07.768Z,17.94
2022-09-26T03:56:11.519Z,17.89
2022-09-26T03:59:14.272Z,17.87
2022-09-26T04:02:17.716Z,17.93
2022-09-26T04:05:21.875Z,17.88
2022-09-26T04:08:24.562Z,17.90
2022-09-26T04:11:27.280Z,17.80
2022-09-26T04:14:29.945Z,17.94
2022-09-26T04:17:32.643Z,17.90
2022-09-26T04:20:36.697Z,17.95
2022-09-26T04:23:40.589Z,17.92
2022-09-26T04:26:44.190Z,17.90
2022-09-26T04:29:47.024Z,17.98
2022-09-26T04:32:49.714Z,17.84
2022-09-26T04:35:53.936Z,17.91
2022-09-26T04:38:58.375Z,17.98
2022-09-26T04:42:01.076Z,17.94
2022-09-26T04:45:03.727Z,17.97
2022-09-26T04:48:06.465Z,17.91
2022-09-26T04:51:11.583Z,18.06
2022-09-26T04:54:14.327Z,18.12
2022-09-26T04:57:19.683Z,18.14
2022-09-26T05:00:23.385Z,18.15
2022-09-26T05:03:26.192Z,18.23
2022-09-26T05:06:30.279Z,18.00
2022-09-26T05:09:35.910Z,18.26
2022-09-26T05:12:39.673Z,18.05
2022-09-26T05:15:42.884Z,18.11
2022-09-26T05:18:45.606Z,18.18
2022-09-26T05:21:49.600Z,18.16
2022-09-26T05:25:09.838Z,18.21
2022-09-26T05:28:12.658Z,18.36
2022-09-26T05:31:15.582Z,18.37
2022-09-26T05:34:20.144Z,18.47
2022-09-26T05:37:24.684Z,18.44
2022-09-26T05:40:45.044Z,18.65
2022-09-26T05:43:48.185Z,18.87
2022-09-26T05:46:52.162Z,18.82
2022-09-26T05:49:54.896Z,18.78
2022-09-26T05:52:59.721Z,18.90
2022-09-26T05:56:02.631Z,18.84
2022-09-26T05:59:05.653Z,18.81
2022-09-26T06:02:08.992Z,18.71
2022-09-26T06:05:11.792Z,18.63
2022-09-26T06:08:17.320Z,18.56
2022-09-26T06:11:22.667Z,18.57
2022-09-26T06:14:26.631Z,18.46
2022-09-26T06:17:29.332Z,18.52
2022-09-26T06:20:33.133Z,18.77
2022-09-26T06:23:37.353Z,18.86
2022-09-26T06:26:40.037Z,18.95
2022-09-26T06:29:42.683Z,19.01
2022-09-26T06:32:46.419Z,19.14
2022-09-26T06:36:00.055Z,19.23
2022-09-26T06:39:04.179Z,19.29
2022-09-26T06:42:07.453Z,19.44
2022-09-26T06:45:11.364Z,19.55
2022-09-26T06:48:14.333Z,19.77
2022-09-26T06:51:16.963Z,19.53
2022-09-26T06:54:21.090Z,19.58
2022-09-26T06:57:24.052Z,19.66
2022-09-26T07:00:29.733Z,19.83
2022-09-26T07:03:32.436Z,19.98
2022-09-26T07:06:35.122Z,20.04
2022-09-26T07:09:41.115Z,20.12
2022-09-26T07:12:45.933Z,20.16
2022-09-26T07:15:48.781Z,20.27
2022-09-26T07:18:51.663Z,20.36
2022-09-26T07:21:55.304Z,20.31
2022-09-26T07:24:59.319Z,20.40
2022-09-26T07:28:02.728Z,20.25
2022-09-26T07:31:05.795Z,20.41
2022-09-26T07:34:09.024Z,20.43
2022-09-26T07:37:11.980Z,20.17
2022-09-26T07:40:16.742Z,20.21
2022-09-26T07:43:24.132Z,20.44
2022-09-26T07:46:56.048Z,20.52
2022-09-26T07:50:15.107Z,20.64
2022-09-26T07:53:19.126Z,20.79
2022-09-26T07:56:23.151Z,20.67
2022-09-26T07:59:27.183Z,20.69
2022-09-26T08:02:34.528Z,20.84
2022-09-26T08:05:37.444Z,20.97
2022-09-26T08:08:41.416Z,20.84
2022-09-26T08:11:45.685Z,20.82
2022-09-26T08:14:49.579Z,21.00
2022-09-26T08:17:52.734Z,21.15
2022-09-26T08:20:56.422Z,21.08
2022-09-26T08:23:59.227Z,21.11
2022-09-26T08:27:05.360Z,21.08
2022-09-26T08:30:10.578Z,21.12
2022-09-26T08:33:13.522Z,21.19
2022-09-26T08:36:17.140Z,21.17
2022-09-26T08:39:19.899Z,21.20
2022-09-26T08:42:32.938Z,21.34
2022-09-26T08:45:56.369Z,21.30
2022-09-26T08:49:14.910Z,21.39
2022-09-26T08:52:31.165Z,21.65
2022-09-26T08:55:35.957Z,21.79
2022-09-26T08:58:41.911Z,21.93
2022-09-26T09:01:46.820Z,22.11
2022-09-26T09:04:54.164Z,22.15
2022-09-26T09:07:58.196Z,22.27
2022-09-26T09:11:06.167Z,22.38
2022-09-26T09:14:18.895Z,22.44
2022-09-26T09:17:27.721Z,22.53
2022-09-26T09:20:36.584Z,22.66
2022-09-26T09:23:46.796Z,22.82
2022-09-26T09:30:38.596Z,22.83
2022-09-26T09:33:42.960Z,22.84
2022-09-26T09:36:49.851Z,22.86
2022-09-26T09:39:53.306Z,22.89
2022-09-26T09:42:59.093Z,22.83
2022-09-26T09:46:05.576Z,22.79
2022-09-26T09:49:17.686Z,22.96
2022-09-26T09:52:34.184Z,23.07
2022-09-26T09:55:39.764Z,23.09
2022-09-26T09:58:59.266Z,23.32
2022-09-26T10:02:13.280Z,23.25
2022-09-26T10:05:22.557Z,23.28
2022-09-26T10:08:31.343Z,23.31
2022-09-26T10:11:41.584Z,23.31
2022-09-26T10:14:47.291Z,23.31
2022-09-26T10:21:34.076Z,23.64
2022-09-26T10:24:40.849Z,23.60
2022-09-26T10:27:51.851Z,23.53
2022-09-26T10:30:56.558Z,23.57
2022-09-26T10:34:22.080Z,23.51
2022-09-26T10:37:25.798Z,23.48
2022-09-26T10:40:48.526Z,23.56
2022-09-26T10:43:53.356Z,23.47
2022-09-26T10:46:59.374Z,23.48
2022-09-26T10:50:07.633Z,23.53
2022-09-26T10:53:14.345Z,23.46
2022-09-26T10:56:21.553Z,23.49
2022-09-26T10:59:26.751Z,23.58
2022-09-26T11:02:29.568Z,23.50
2022-09-26T11:05:53.739Z,23.38
2022-09-26T11:09:03.019Z,23.36
2022-09-26T11:12:23.498Z,23.35
2022-09-26T11:15:26.233Z,23.65
2022-09-26T11:18:34.760Z,23.69
2022-09-26T11:21:41.943Z,23.61
2022-09-26T11:24:47.618Z,23.57
2022-09-26T11:27:52.489Z,23.66
2022-09-26T11:30:58.929Z,23.80
2022-09-26T11:34:04.314Z,23.77
2022-09-26T11:37:22.498Z,23.78
2022-09-26T11:40:33.459Z,23.73
2022-09-26T11:43:44.966Z,23.55
2022-09-26T11:46:55.135Z,23.40
2022-09-26T11:50:13.212Z,23.31
2022-09-26T11:53:43.066Z,23.27
2022-09-26T11:56:55.190Z,23.19
2022-09-26T12:00:07.358Z,23.12
2022-09-26T12:03:27.813Z,23.06
2022-09-26T12:06:33.405Z,23.09
2022-09-26T12:09:52.609Z,23.11
2022-09-26T12:13:03.351Z,23.17
2022-09-26T12:16:12.352Z,23.04
2022-09-26T12:19:21.706Z,23.09
2022-09-26T12:22:29.495Z,23.08
2022-09-26T12:25:39.646Z,22.98
2022-09-26T12:28:58.646Z,23.09
2022-09-26T12:32:14.825Z,23.18
2022-09-26T12:35:29.717Z,23.05
2022-09-26T12:38:43.289Z,23.15
2022-09-26T12:41:56.427Z,23.01
2022-09-26T12:45:18.262Z,23.09
2022-09-26T12:48:31.296Z,23.00
2022-09-26T12:51:42.065Z,22.91
2022-09-26T12:54:59.505Z,22.89
2022-09-26T12:58:16.855Z,22.84
2022-09-26T13:01:43.621Z,22.70
2022-09-26T13:05:17.615Z,22.70
2022-09-26T13:08:24.977Z,22.71
2022-09-26T13:11:32.859Z,22.81
2022-09-26T13:14:55.246Z,22.94
2022-09-26T13:18:02.355Z,22.99
2022-09-26T13:21:12.137Z,22.97
2022-09-26T13:24:18.728Z,22.97
2022-09-26T13:27:23.200Z,22.88
2022-09-26T13:30:29.347Z,22.81
2022-09-26T13:33:34.896Z,22.83
2022-09-26T13:36:42.335Z,22.79
2022-09-26T13:39:49.170Z,22.60
2022-09-26T13:43:00.742Z,22.64
2022-09-26T13:46:10.776Z,22.60
2022-09-26T13:49:25.167Z,22.58
2022-09-26T13:52:35.561Z,22.59
2022-09-26T13:55:38.329Z,22.64
2022-09-26T13:58:41.066Z,22.64
2022-09-26T14:01:58.711Z,22.64
2022-09-26T14:05:20.109Z,22.59
2022-09-26T14:08:51.271Z,22.56
2022-09-26T14:12:18.234Z,22.48
2022-09-26T14:15:22.798Z,22.51
2022-09-26T14:18:29.859Z,22.48
2022-09-26T14:21:58.857Z,22.38
2022-09-26T14:25:03.736Z,22.16
2022-09-26T14:28:10.445Z,22.07
2022-09-26T14:31:17.731Z,21.92
2022-09-26T14:34:22.946Z,21.91
2022-09-26T14:37:33.556Z,21.81
2022-09-26T14:40:38.023Z,21.85
2022-09-26T14:43:41.805Z,21.85
2022-09-26T14:46:47.255Z,21.73
2022-09-26T14:50:00.980Z,21.57
2022-09-26T14:53:11.559Z,21.56
2022-09-26T14:56:17.641Z,21.54
2022-09-26T14:59:44.005Z,21.59
2022-09-26T15:02:50.485Z,21.67
2022-09-26T15:05:53.352Z,21.76
2022-09-26T15:08:56.359Z,21.73
2022-09-26T15:12:00.978Z,21.65
2022-09-26T15:15:14.015Z,21.63
2022-09-26T15:18:21.091Z,21.51
2022-09-26T15:21:32.782Z,21.45
2022-09-26T15:24:36.937Z,21.30
2022-09-26T15:27:45.989Z,21.44
2022-09-26T15:30:50.567Z,21.50
2022-09-26T15:33:56.418Z,21.49
2022-09-26T15:36:59.988Z,21.51
2022-09-26T15:40:12.080Z,21.52
2022-09-26T15:43:21.491Z,21.46
2022-09-26T15:46:24.380Z,21.20
2022-09-26T15:49:28.586Z,21.21
2022-09-26T15:52:33.268Z,21.20
2022-09-26T15:55:38.805Z,21.26
2022-09-26T15:58:46.957Z,21.18
2022-09-26T16:01:50.022Z,21.11
2022-09-26T16:04:54.885Z,21.02
2022-09-26T16:07:58.806Z,21.04
2022-09-26T16:11:02.439Z,21.04
2022-09-26T16:14:08.608Z,21.03
2022-09-26T16:17:14.694Z,20.97
2022-09-26T16:20:25.449Z,20.91
2022-09-26T16:23:28.608Z,20.74
2022-09-26T16:26:32.414Z,20.89
2022-09-26T16:29:37.910Z,20.88
2022-09-26T16:32:40.694Z,20.93
2022-09-26T16:35:46.794Z,21.13
2022-09-26T16:38:53.964Z,21.23
2022-09-26T16:42:03.375Z,21.20
2022-09-26T16:45:14.726Z,20.86
2022-09-26T16:48:37.369Z,21.43
2022-09-26T16:51:41.654Z,21.68
2022-09-26T16:54:44.701Z,21.72
2022-09-26T16:57:51.915Z,21.64
2022-09-26T17:01:13.292Z,21.51
2022-09-26T17:04:17.837Z,21.65
2022-09-26T17:07:20.844Z,21.71
2022-09-26T17:10:25.798Z,21.70
2022-09-26T17:13:33.189Z,21.69
2022-09-26T17:16:37.342Z,21.71
2022-09-26T17:19:42.007Z,21.65
2022-09-26T17:22:45.044Z,21.55
2022-09-26T17:25:54.070Z,21.51
2022-09-26T17:28:59.391Z,21.52
2022-09-26T17:32:09.587Z,21.57
2022-09-26T17:35:14.738Z,21.65
2022-09-26T17:38:19.200Z,21.70
2022-09-26T17:41:25.446Z,21.92
2022-09-26T17:44:28.539Z,21.98
2022-09-26T17:47:37.776Z,21.96
2022-09-26T17:50:42.985Z,21.89
2022-09-26T17:53:51.074Z,21.83
2022-09-26T17:56:54.493Z,21.83
2022-09-26T17:59:58.661Z,21.84
2022-09-26T18:03:04.356Z,21.83
2022-09-26T18:06:12.563Z,21.81
2022-09-26T18:09:17.479Z,21.73
2022-09-26T18:12:24.035Z,21.55
2022-09-26T18:15:27.623Z,21.56
2022-09-26T18:18:36.868Z,21.53
2022-09-26T18:21:40.504Z,21.49
2022-09-26T18:24:45.441Z,21.49
2022-09-26T18:27:51.313Z,21.41
2022-09-26T18:30:58.309Z,21.40
2022-09-26T18:34:04.400Z,21.37
2022-09-26T18:37:07.207Z,21.28
2022-09-26T18:40:13.214Z,21.27
2022-09-26T18:43:20.978Z,21.19
2022-09-26T18:46:25.345Z,21.13
2022-09-26T18:49:31.710Z,21.20
2022-09-26T18:52:34.992Z,21.28
2022-09-26T18:55:57.781Z,21.29
2022-09-26T18:59:01.533Z,21.13
2022-09-26T19:02:06.178Z,21.04
2022-09-26T19:05:13.224Z,21.07
2022-09-26T19:08:28.077Z,20.98
2022-09-26T19:11:36.981Z,20.90
2022-09-26T19:14:40.235Z,20.88
2022-09-26T19:17:44.677Z,20.88
2022-09-26T19:20:49.984Z,20.80
2022-09-26T19:23:53.318Z,20.72
2022-09-26T19:26:59.102Z,20.83
2022-09-26T19:30:03.916Z,20.74
2022-09-26T19:33:06.763Z,20.70
2022-09-26T19:36:12.257Z,20.52
2022-09-26T19:39:16.432Z,20.60
2022-09-26T19:42:19.229Z,20.48
2022-09-26T19:45:25.013Z,20.52
2022-09-26T19:48:28.129Z,20.50
2022-09-26T19:51:37.849Z,20.29
2022-09-26T19:54:40.601Z,20.55
2022-09-26T19:57:45.727Z,20.57
2022-09-26T20:00:50.114Z,20.37
2022-09-26T20:03:53.414Z,20.37
2022-09-26T20:06:58.498Z,20.35
2022-09-26T20:10:02.284Z,20.54
2022-09-26T20:13:05.035Z,20.55
2022-09-26T20:16:10.259Z,20.52
2022-09-26T20:19:16.965Z,20.47
2022-09-26T20:22:21.996Z,20.45
2022-09-26T20:25:27.052Z,20.44
2022-09-26T20:28:30.284Z,20.51
2022-09-26T20:31:32.966Z,20.57
2022-09-26T20:34:35.735Z,20.51
2022-09-26T20:37:40.956Z,20.64
2022-09-26T20:40:43.943Z,20.48
2022-09-26T20:43:49.197Z,20.40
2022-09-26T20:46:53.562Z,20.38
2022-09-26T20:49:58.472Z,20.42
2022-09-26T20:53:02.551Z,20.49
2022-09-26T20:56:05.235Z,20.59
2022-09-26T20:59:08.553Z,20.52
2022-09-26T21:02:27.050Z,20.51
2022-09-26T21:05:29.767Z,20.51
2022-09-26T21:08:33.878Z,20.50
2022-09-26T21:11:36.581Z,20.40
2022-09-26T21:14:39.261Z,20.43
2022-09-26T21:17:42.857Z,20.53
2022-09-26T21:20:46.630Z,20.60
2022-09-26T21:23:50.837Z,20.46
2022-09-26T21:26:53.495Z,20.50
2022-09-26T21:29:56.163Z,20.51
2022-09-26T21:32:59.950Z,20.57
2022-09-26T21:36:02.844Z,20.48
2022-09-26T21:39:07.118Z,20.48
2022-09-26T21:42:09.749Z,20.55
2022-09-26T21:45:12.888Z,20.60
2022-09-26T21:48:16.160Z,20.50
2022-09-26T21:51:20.449Z,20.47
2022-09-26T21:54:26.641Z,20.45
2022-09-26T21:57:31.251Z,20.44
2022-09-26T22:00:34.045Z,20.50
2022-09-26T22:03:37.276Z,20.43
2022-09-26T22:06:40.018Z,20.47
2022-09-26T22:09:44.160Z,20.49
2022-09-26T22:12:47.053Z,20.53
2022-09-26T22:15:49.873Z,20.53
2022-09-26T22:18:52.547Z,20.60
2022-09-26T22:21:55.840Z,20.63
2022-09-26T22:25:03.913Z,20.60
2022-09-26T22:28:06.603Z,20.52
2022-09-26T22:31:09.457Z,20.60
2022-09-26T22:34:12.360Z,20.59
2022-09-26T22:37:15.088Z,20.50
2022-09-26T22:40:19.243Z,20.59
2022-09-26T22:43:21.950Z,20.63
2022-09-26T22:46:24.844Z,20.72
2022-09-26T22:49:27.572Z,20.62
2022-09-26T22:52:30.255Z,20.69
2022-09-26T22:55:34.316Z,20.68
2022-09-26T22:58:38.837Z,20.53
2022-09-26T23:01:41.589Z,20.61
2022-09-26T23:04:50.427Z,20.60
2022-09-26T23:07:53.947Z,20.63
2022-09-26T23:10:58.035Z,20.62
2022-09-26T23:14:00.725Z,20.55
2022-09-26T23:17:03.569Z,20.55
2022-09-26T23:20:06.936Z,20.57
2022-09-26T23:23:10.182Z,20.66
2022-09-26T23:26:16.997Z,20.66
2022-09-26T23:29:19.683Z,20.68
2022-09-26T23:32:22.358Z,20.56
2022-09-26T23:35:24.999Z,20.66
2022-09-26T23:38:27.916Z,20.62
2022-09-26T23:41:32.005Z,20.55
2022-09-26T23:44:35.003Z,20.58
2022-09-26T23:47:37.750Z,20.61
2022-09-26T23:50:40.399Z,20.70
2022-09-26T23:53:43.107Z,20.58
2022-09-26T23:56:47.126Z,20.56
2022-09-26T23:59:49.771Z,20.57
